createdAt,value
2023-03-08T00:02:24.163Z,98803.31
2023-03-08T00:04:55.725Z,98800.38
2023-03-08T00:07:23.454Z,98792.41
2023-03-08T00:09:50.523Z,98790.88
2023-03-08T00:12:20.233Z,98788.06
2023-03-08T00:14:47.228Z,98784.44
2023-03-08T00:17:14.346Z,98784.44
2023-03-08T00:19:41.199Z,98778.16
2023-03-08T00:22:08.307Z,98777.84
2023-03-08T00:24:35.439Z,98774.22
2023-03-08T00:27:02.480Z,98766.38
2023-03-08T00:29:29.744Z,98761.63
2023-03-08T00:31:56.572Z,98771.94
2023-03-08T00:34:23.550Z,98767.75
2023-03-08T00:36:50.700Z,98759.50
2023-03-08T00:39:17.520Z,98772.81
2023-03-08T00:41:44.330Z,98776.69
2023-03-08T00:44:11.206Z,98767.31
2023-03-08T00:46:38.052Z,98775.00
2023-03-08T00:49:05.199Z,98784.97
2023-03-08T00:51:32.008Z,98774.03
2023-03-08T00:53:58.790Z,98779.91
2023-03-08T00:56:25.808Z,98769.69
2023-03-08T00:58:52.581Z,98772.06
2023-03-08T01:01:19.962Z,98767.59
2023-03-08T01:03:47.185Z,98762.13
2023-03-08T01:06:15.992Z,98752.47
2023-03-08T01:08:44.660Z,98747.00
2023-03-08T01:11:24.071Z,98750.50
2023-03-08T01:13:53.149Z,98746.03
2023-03-08T01:16:24.598Z,98745.34
2023-03-08T01:18:52.682Z,98736.91
2023-03-08T01:21:19.888Z,98733.28
2023-03-08T01:23:47.275Z,98728.94
2023-03-08T01:26:20.701Z,98713.81
2023-03-08T01:28:48.064Z,98708.63
2023-03-08T01:31:21.872Z,98702.63
2023-03-08T01:33:49.848Z,98701.66
2023-03-08T01:36:20.194Z,98697.31
2023-03-08T01:38:48.027Z,98691.84
2023-03-08T01:41:35.270Z,98684.69
2023-03-08T01:44:02.316Z,98675.47
2023-03-08T01:46:33.885Z,98673.50
2023-03-08T01:49:20.572Z,98681.59
2023-03-08T01:52:03.015Z,98668.03
2023-03-08T01:54:35.397Z,98661.72
2023-03-08T01:57:11.696Z,98656.63
2023-03-08T01:59:39.662Z,98649.91
2023-03-08T02:02:07.167Z,98638.31
2023-03-08T02:04:34.869Z,98638.72
2023-03-08T02:07:02.067Z,98637.41
2023-03-08T02:09:29.390Z,98632.50
2023-03-08T02:12:01.975Z,98624.03
2023-03-08T02:14:29.348Z,98624.72
2023-03-08T02:16:56.162Z,98620.91
2023-03-08T02:19:33.644Z,98616.44
2023-03-08T02:22:09.969Z,98606.88
2023-03-08T02:24:36.856Z,98591.75
2023-03-08T02:27:13.066Z,98588.06
2023-03-08T02:29:39.913Z,98592.13
2023-03-08T02:32:07.336Z,98590.28
2023-03-08T02:34:34.970Z,98581.16
2023-03-08T02:37:02.155Z,98577.38
2023-03-08T02:39:28.991Z,98570.22
2023-03-08T02:41:56.225Z,98568.53
2023-03-08T02:44:23.042Z,98559.41
2023-03-08T02:46:50.161Z,98566.91
2023-03-08T02:49:17.287Z,98565.88
2023-03-08T02:51:44.152Z,98560.78
2023-03-08T02:54:10.941Z,98550.94
2023-03-08T02:56:37.756Z,98553.41
2023-03-08T02:59:06.112Z,98555.97
2023-03-08T03:01:32.956Z,98546.97
2023-03-08T03:03:59.812Z,98542.34
2023-03-08T03:06:26.752Z,98536.47
2023-03-08T03:08:53.623Z,98525.00
2023-03-08T03:11:22.977Z,98519.00
2023-03-08T03:13:59.502Z,98522.03
2023-03-08T03:16:28.265Z,98515.88
2023-03-08T03:18:56.486Z,98515.88
2023-03-08T03:21:24.565Z,98511.56
2023-03-08T03:23:51.611Z,98497.06
2023-03-08T03:26:21.951Z,98508.59
2023-03-08T03:28:49.580Z,98505.75
2023-03-08T03:31:20.642Z,98496.41
2023-03-08T03:33:48.981Z,98494.41
2023-03-08T03:36:19.998Z,98491.47
2023-03-08T03:38:48.167Z,98489.47
2023-03-08T03:41:18.953Z,98481.97
2023-03-08T03:43:46.889Z,98487.09
2023-03-08T03:46:17.237Z,98471.81
2023-03-08T03:48:45.030Z,98464.84
2023-03-08T03:51:15.457Z,98462.69
2023-03-08T03:53:42.791Z,98457.38
2023-03-08T03:56:14.844Z,98459.50
2023-03-08T03:58:42.312Z,98448.03
2023-03-08T04:01:30.659Z,98449.16
2023-03-08T04:03:58.006Z,98440.19
2023-03-08T04:06:35.100Z,98433.84
2023-03-08T04:09:09.157Z,98436.22
2023-03-08T04:11:39.037Z,98425.88
2023-03-08T04:14:06.924Z,98420.88
2023-03-08T04:16:37.884Z,98415.22
2023-03-08T04:19:08.933Z,98412.75
2023-03-08T04:21:35.912Z,98415.41
2023-03-08T04:24:04.232Z,98406.56
2023-03-08T04:26:31.349Z,98411.88
2023-03-08T04:28:58.204Z,98401.75
2023-03-08T04:31:29.781Z,98395.91
2023-03-08T04:33:58.384Z,98396.25
2023-03-08T04:36:25.518Z,98397.09
2023-03-08T04:38:52.989Z,98395.09
2023-03-08T04:41:20.290Z,98392.91
2023-03-08T04:43:53.781Z,98389.56
2023-03-08T04:46:25.338Z,98385.91
2023-03-08T04:48:54.228Z,98379.91
2023-03-08T04:51:22.870Z,98385.03
2023-03-08T04:53:49.955Z,98385.03
2023-03-08T04:56:17.284Z,98389.06
2023-03-08T04:58:45.107Z,98394.16
2023-03-08T05:01:23.309Z,98382.47
2023-03-08T05:03:52.611Z,98388.31
2023-03-08T05:06:22.602Z,98387.34
2023-03-08T05:08:49.575Z,98388.19
2023-03-08T05:11:23.776Z,98380.34
2023-03-08T05:13:51.281Z,98376.84
2023-03-08T05:16:18.162Z,98375.84
2023-03-08T05:18:45.497Z,98375.16
2023-03-08T05:21:17.295Z,98364.22
2023-03-08T05:23:44.633Z,98376.03
2023-03-08T05:26:15.157Z,98366.38
2023-03-08T05:28:42.969Z,98373.19
2023-03-08T05:31:16.198Z,98370.72
2023-03-08T05:33:46.641Z,98359.22
2023-03-08T05:36:14.950Z,98363.25
2023-03-08T05:38:42.407Z,98346.56
2023-03-08T05:41:13.486Z,98346.56
2023-03-08T05:43:40.334Z,98343.75
2023-03-08T05:46:12.406Z,98348.94
2023-03-08T05:48:39.796Z,98345.75
2023-03-08T05:51:16.312Z,98336.94
2023-03-08T05:53:44.056Z,98329.94
2023-03-08T05:56:20.923Z,98326.44
2023-03-08T05:58:48.782Z,98329.94
2023-03-08T06:01:22.686Z,98325.63
2023-03-08T06:03:53.639Z,98328.44
2023-03-08T06:06:23.102Z,98333.44
2023-03-08T06:08:50.065Z,98338.25
2023-03-08T06:11:17.776Z,98339.59
2023-03-08T06:13:44.902Z,98340.28
2023-03-08T06:16:12.502Z,98333.44
2023-03-08T06:18:43.213Z,98322.97
2023-03-08T06:21:17.794Z,98317.78
2023-03-08T06:23:46.916Z,98308.31
2023-03-08T06:26:15.467Z,98317.78
2023-03-08T06:28:42.938Z,98309.44
2023-03-08T06:31:15.420Z,98314.97
2023-03-08T06:33:43.095Z,98311.28
2023-03-08T06:36:14.680Z,98314.47
2023-03-08T06:38:42.392Z,98323.25
2023-03-08T06:41:12.703Z,98324.59
2023-03-08T06:43:39.902Z,98335.06
2023-03-08T06:46:17.111Z,98334.72
2023-03-08T06:48:44.911Z,98332.06
2023-03-08T06:51:11.949Z,98336.25
2023-03-08T06:53:38.908Z,98332.59
2023-03-08T06:56:08.301Z,98343.25
2023-03-08T06:58:36.932Z,98338.78
2023-03-08T07:01:05.895Z,98336.94
2023-03-08T07:03:34.285Z,98323.63
2023-03-08T07:06:03.539Z,98323.63
2023-03-08T07:08:30.724Z,98315.50
2023-03-08T07:10:58.682Z,98314.63
2023-03-08T07:13:26.186Z,98312.84
2023-03-08T07:15:53.173Z,98313.50
2023-03-08T07:18:20.615Z,98307.34
2023-03-08T07:21:01.179Z,98314.03
2023-03-08T07:23:28.241Z,98315.00
2023-03-08T07:25:55.330Z,98317.34
2023-03-08T07:28:22.534Z,98321.00
2023-03-08T07:30:52.489Z,98324.84
2023-03-08T07:33:21.388Z,98328.34
2023-03-08T07:35:49.301Z,98331.00
2023-03-08T07:38:17.127Z,98330.22
2023-03-08T07:40:44.475Z,98338.03
2023-03-08T07:43:11.517Z,98324.72
2023-03-08T07:45:42.422Z,98325.75
2023-03-08T07:48:09.520Z,98326.09
2023-03-08T07:50:37.542Z,98321.44
2023-03-08T07:53:04.851Z,98311.75
2023-03-08T07:55:31.660Z,98312.59
2023-03-08T07:57:58.741Z,98315.59
2023-03-08T08:00:26.178Z,98314.44
2023-03-08T08:02:54.405Z,98317.28
2023-03-08T08:05:24.559Z,98315.28
2023-03-08T08:07:51.616Z,98319.44
2023-03-08T08:10:18.534Z,98316.47
2023-03-08T08:12:45.718Z,98326.63
2023-03-08T08:15:12.634Z,98324.13
2023-03-08T08:17:39.608Z,98329.31
2023-03-08T08:20:08.360Z,98332.97
2023-03-08T08:22:38.798Z,98329.16
2023-03-08T08:25:08.036Z,98334.81
2023-03-08T08:27:35.739Z,98330.84
2023-03-08T08:30:05.500Z,98342.00
2023-03-08T08:32:35.703Z,98347.69
2023-03-08T08:35:03.134Z,98351.16
2023-03-08T08:37:30.766Z,98353.16
2023-03-08T08:39:57.749Z,98352.66
2023-03-08T08:42:25.206Z,98354.19
2023-03-08T08:44:55.872Z,98345.38
2023-03-08T08:47:22.765Z,98336.88
2023-03-08T08:49:49.653Z,98343.19
2023-03-08T08:52:16.571Z,98336.56
2023-03-08T08:54:43.443Z,98344.53
2023-03-08T08:57:10.481Z,98339.22
2023-03-08T08:59:37.443Z,98335.53
2023-03-08T09:02:04.421Z,98336.53
2023-03-08T09:04:31.599Z,98329.88
2023-03-08T09:06:58.497Z,98334.88
2023-03-08T09:09:27.072Z,98336.91
2023-03-08T09:11:55.724Z,98322.91
2023-03-08T09:14:23.590Z,98331.56
2023-03-08T09:16:50.595Z,98337.06
2023-03-08T09:19:17.695Z,98333.72
2023-03-08T09:21:44.707Z,98332.88
2023-03-08T09:24:12.807Z,98327.22
2023-03-08T09:26:39.763Z,98326.41
2023-03-08T09:29:07.911Z,98332.06
2023-03-08T09:31:37.856Z,98329.22
2023-03-08T09:34:09.329Z,98332.56
2023-03-08T09:36:40.157Z,98332.88
2023-03-08T09:39:09.460Z,98342.06
2023-03-08T09:41:50.058Z,98341.72
2023-03-08T09:44:31.900Z,98347.38
2023-03-08T09:47:13.889Z,98345.22
2023-03-08T09:49:43.602Z,98336.72
2023-03-08T09:52:17.976Z,98341.56
2023-03-08T09:54:46.733Z,98337.88
2023-03-08T09:57:23.452Z,98339.53
2023-03-08T09:59:57.581Z,98340.56
2023-03-08T10:02:39.684Z,98331.84
2023-03-08T10:05:15.189Z,98330.00
2023-03-08T10:08:18.073Z,98335.84
2023-03-08T10:11:03.708Z,98336.47
2023-03-08T10:13:31.953Z,98330.81
2023-03-08T10:16:06.408Z,98325.16
2023-03-08T10:18:52.276Z,98333.47
2023-03-08T10:21:25.270Z,98326.78
2023-03-08T10:24:02.438Z,98328.47
2023-03-08T10:26:29.359Z,98324.81
2023-03-08T10:28:56.229Z,98325.16
2023-03-08T10:31:28.343Z,98325.47
2023-03-08T10:34:25.223Z,98327.81
2023-03-08T10:36:58.202Z,98326.47
2023-03-08T10:39:25.277Z,98312.78
2023-03-08T10:42:13.600Z,98324.78
2023-03-08T10:44:58.982Z,98322.78
2023-03-08T10:47:36.574Z,98319.16
2023-03-08T10:50:18.137Z,98322.44
2023-03-08T10:52:51.044Z,98321.13
2023-03-08T10:55:28.294Z,98314.41
2023-03-08T10:58:02.034Z,98314.41
2023-03-08T11:00:38.407Z,98309.22
2023-03-08T11:03:19.733Z,98317.53
2023-03-08T11:06:03.824Z,98306.34
2023-03-08T11:08:34.984Z,98312.00
2023-03-08T11:11:06.303Z,98304.63
2023-03-08T11:13:41.915Z,98309.66
2023-03-08T11:16:53.482Z,98303.97
2023-03-08T11:19:43.930Z,98302.63
2023-03-08T11:22:20.149Z,98304.28
2023-03-08T11:24:59.038Z,98303.13
2023-03-08T11:28:29.585Z,98290.06
2023-03-08T11:31:27.790Z,98301.91
2023-03-08T11:34:22.572Z,98299.03
2023-03-08T11:37:12.129Z,98293.50
2023-03-08T11:39:47.740Z,98304.84
2023-03-08T11:42:54.676Z,98306.81
2023-03-08T11:45:50.585Z,98310.81
2023-03-08T11:49:01.898Z,98303.47
2023-03-08T11:51:53.447Z,98303.56
2023-03-08T11:55:10.990Z,98304.44
2023-03-08T11:57:45.685Z,98301.44
2023-03-08T12:00:32.074Z,98299.50
2023-03-08T12:03:09.009Z,98310.47
2023-03-08T12:05:43.930Z,98313.97
2023-03-08T12:08:29.126Z,98302.44
2023-03-08T12:11:02.030Z,98291.25
2023-03-08T12:13:43.920Z,98285.09
2023-03-08T12:16:25.813Z,98287.28
2023-03-08T12:19:20.667Z,98283.78
2023-03-08T12:21:53.307Z,98305.47
2023-03-08T12:24:48.242Z,98304.13
2023-03-08T12:27:41.518Z,98293.06
2023-03-08T12:30:11.384Z,98289.38
2023-03-08T12:32:41.633Z,98286.38
2023-03-08T12:35:14.664Z,98282.69
2023-03-08T12:37:41.684Z,98276.34
2023-03-08T12:40:30.938Z,98274.66
2023-03-08T12:43:15.030Z,98271.09
2023-03-08T12:45:44.915Z,98261.69
2023-03-08T12:48:32.179Z,98254.53
2023-03-08T12:51:19.280Z,98248.88
2023-03-08T12:53:49.220Z,98258.84
2023-03-08T12:56:24.405Z,98271.56
2023-03-08T12:59:27.210Z,98257.84
2023-03-08T13:01:57.067Z,98252.63
2023-03-08T13:04:42.090Z,98250.41
2023-03-08T13:07:23.082Z,98246.75
2023-03-08T13:10:22.967Z,98255.97
2023-03-08T13:13:39.854Z,98249.34
2023-03-08T13:16:19.683Z,98252.22
2023-03-08T13:18:52.263Z,98245.22
2023-03-08T13:21:38.863Z,98236.34
2023-03-08T13:24:19.128Z,98238.22
2023-03-08T13:27:23.604Z,98241.50
2023-03-08T13:29:52.216Z,98243.03
2023-03-08T13:32:22.168Z,98234.44
2023-03-08T13:35:15.516Z,98236.47
2023-03-08T13:37:42.956Z,98241.50
2023-03-08T13:40:19.915Z,98226.53
2023-03-08T13:42:59.260Z,98233.91
2023-03-08T13:45:27.118Z,98222.09
2023-03-08T13:47:59.068Z,98218.59
2023-03-08T13:50:42.017Z,98224.94
2023-03-08T13:53:19.514Z,98229.13
2023-03-08T13:55:51.687Z,98220.63
2023-03-08T13:58:24.639Z,98218.59
2023-03-08T14:01:12.384Z,98217.31
2023-03-08T14:03:40.483Z,98210.94
2023-03-08T14:06:29.821Z,98202.09
2023-03-08T14:09:00.666Z,98209.94
2023-03-08T14:11:36.723Z,98212.59
2023-03-08T14:14:09.546Z,98215.28
2023-03-08T14:16:39.920Z,98206.97
2023-03-08T14:19:22.465Z,98207.31
2023-03-08T14:22:00.718Z,98202.44
2023-03-08T14:24:35.977Z,98203.38
2023-03-08T14:27:07.493Z,98211.22
2023-03-08T14:29:36.479Z,98209.38
2023-03-08T14:32:13.028Z,98214.56
2023-03-08T14:34:46.497Z,98203.75
2023-03-08T14:37:30.589Z,98201.03
2023-03-08T14:40:26.449Z,98207.31
2023-03-08T14:43:04.895Z,98203.28
2023-03-08T14:45:40.259Z,98203.00
2023-03-08T14:48:36.807Z,98199.94
2023-03-08T14:51:34.628Z,98189.22
2023-03-08T14:54:05.989Z,98195.56
2023-03-08T14:56:34.912Z,98195.56
2023-03-08T14:59:05.524Z,98197.09
2023-03-08T15:01:36.075Z,98189.38
2023-03-08T15:04:05.104Z,98184.88
2023-03-08T15:06:36.367Z,98182.03
2023-03-08T15:09:08.194Z,98187.72
2023-03-08T15:11:35.691Z,98177.88
2023-03-08T15:14:03.257Z,98182.25
2023-03-08T15:16:30.130Z,98175.91
2023-03-08T15:18:56.956Z,98176.06
2023-03-08T15:21:27.396Z,98183.63
2023-03-08T15:23:54.562Z,98167.41
2023-03-08T15:26:28.166Z,98166.59
2023-03-08T15:28:55.778Z,98173.88
2023-03-08T15:31:22.650Z,98177.25
2023-03-08T15:33:49.898Z,98179.03
2023-03-08T15:36:18.913Z,98171.41
2023-03-08T15:38:46.453Z,98170.38
2023-03-08T15:41:15.281Z,98172.41
2023-03-08T15:43:42.704Z,98165.22
2023-03-08T15:46:14.531Z,98164.09
2023-03-08T15:48:42.235Z,98157.44
2023-03-08T15:51:19.526Z,98156.97
2023-03-08T15:53:48.365Z,98150.78
2023-03-08T15:56:15.891Z,98148.84
2023-03-08T15:58:43.052Z,98140.22
2023-03-08T16:01:12.147Z,98148.88
2023-03-08T16:03:39.415Z,98153.38
2023-03-08T16:06:11.684Z,98154.94
2023-03-08T16:08:39.663Z,98156.59
2023-03-08T16:11:08.839Z,98160.44
2023-03-08T16:13:35.868Z,98154.94
2023-03-08T16:16:05.102Z,98146.59
2023-03-08T16:18:33.464Z,98140.28
2023-03-08T16:21:01.015Z,98146.25
2023-03-08T16:23:27.905Z,98136.63
2023-03-08T16:26:17.449Z,98138.00
2023-03-08T16:28:47.190Z,98143.28
2023-03-08T16:31:17.053Z,98135.28
2023-03-08T16:33:44.001Z,98141.97
2023-03-08T16:36:12.269Z,98139.31
2023-03-08T16:38:40.034Z,98142.31
2023-03-08T16:41:12.709Z,98146.00
2023-03-08T16:43:49.505Z,98139.38
2023-03-08T16:46:21.058Z,98146.34
2023-03-08T16:48:50.095Z,98142.69
2023-03-08T16:51:19.387Z,98150.03
2023-03-08T16:53:46.332Z,98150.03
2023-03-08T16:56:25.872Z,98154.72
2023-03-08T16:58:55.379Z,98147.00
2023-03-08T17:01:23.231Z,98142.72
2023-03-08T17:03:50.928Z,98146.22
2023-03-08T17:06:22.066Z,98147.38
2023-03-08T17:08:49.623Z,98145.38
2023-03-08T17:11:32.127Z,98147.38
2023-03-08T17:14:13.534Z,98142.59
2023-03-08T17:16:40.770Z,98143.59
2023-03-08T17:19:10.808Z,98134.59
2023-03-08T17:21:38.565Z,98143.41
2023-03-08T17:24:08.910Z,98143.13
2023-03-08T17:26:41.700Z,98146.63
2023-03-08T17:29:08.668Z,98150.63
2023-03-08T17:31:35.543Z,98140.63
2023-03-08T17:34:02.667Z,98141.50
2023-03-08T17:36:29.706Z,98146.63
2023-03-08T17:38:56.728Z,98150.81
2023-03-08T17:41:24.122Z,98147.47
2023-03-08T17:43:51.733Z,98156.84
2023-03-08T17:46:24.638Z,98157.19
2023-03-08T17:48:53.451Z,98163.34
2023-03-08T17:51:24.397Z,98174.81
2023-03-08T17:53:51.857Z,98172.53
2023-03-08T17:56:25.285Z,98174.88
2023-03-08T17:58:53.028Z,98168.88
2023-03-08T18:01:26.909Z,98159.03
2023-03-08T18:03:55.670Z,98173.38
2023-03-08T18:06:33.542Z,98179.22
2023-03-08T18:09:05.117Z,98172.06
2023-03-08T18:11:37.655Z,98166.03
2023-03-08T18:14:07.325Z,98165.59
2023-03-08T18:16:34.888Z,98181.59
2023-03-08T18:19:03.240Z,98183.59
2023-03-08T18:21:33.002Z,98193.91
2023-03-08T18:24:00.482Z,98186.59
2023-03-08T18:26:28.227Z,98201.75
2023-03-08T18:28:55.146Z,98201.56
2023-03-08T18:31:26.309Z,98202.59
2023-03-08T18:33:55.215Z,98204.91
2023-03-08T18:36:23.731Z,98195.25
2023-03-08T18:38:50.905Z,98193.75
2023-03-08T18:41:25.868Z,98193.09
2023-03-08T18:43:55.042Z,98197.09
2023-03-08T18:46:29.000Z,98194.91
2023-03-08T18:49:09.990Z,98200.59
2023-03-08T18:51:39.618Z,98196.78
2023-03-08T18:54:09.251Z,98215.94
2023-03-08T18:56:36.199Z,98210.28
2023-03-08T18:59:06.095Z,98207.59
2023-03-08T19:01:33.894Z,98213.25
2023-03-08T19:04:07.280Z,98212.94
2023-03-08T19:06:35.857Z,98224.25
2023-03-08T19:09:14.723Z,98216.59
2023-03-08T19:11:42.317Z,98222.28
2023-03-08T19:14:12.251Z,98219.25
2023-03-08T19:16:39.276Z,98225.28
2023-03-08T19:19:09.545Z,98220.09
2023-03-08T19:21:44.176Z,98224.28
2023-03-08T19:24:16.820Z,98224.09
2023-03-08T19:26:47.572Z,98228.63
2023-03-08T19:29:31.666Z,98222.94
2023-03-08T19:32:02.512Z,98229.94
2023-03-08T19:34:37.882Z,98228.78
2023-03-08T19:37:06.244Z,98223.47
2023-03-08T19:39:37.402Z,98225.09
2023-03-08T19:42:08.465Z,98224.28
2023-03-08T19:44:35.441Z,98235.09
2023-03-08T19:47:04.691Z,98230.13
2023-03-08T19:49:35.079Z,98230.63
2023-03-08T19:52:05.830Z,98229.78
2023-03-08T19:54:33.166Z,98229.28
2023-03-08T19:57:01.230Z,98239.59
2023-03-08T19:59:28.656Z,98230.28
2023-03-08T20:01:56.484Z,98233.09
2023-03-08T20:04:24.859Z,98233.59
2023-03-08T20:06:52.374Z,98227.94
2023-03-08T20:09:24.078Z,98223.25
2023-03-08T20:11:58.818Z,98231.78
2023-03-08T20:14:27.708Z,98235.44
2023-03-08T20:16:55.666Z,98238.09
2023-03-08T20:19:23.084Z,98236.78
2023-03-08T20:21:49.963Z,98233.25
2023-03-08T20:24:22.178Z,98224.09
2023-03-08T20:26:49.106Z,98231.44
2023-03-08T20:29:17.584Z,98219.63
2023-03-08T20:31:48.221Z,98229.13
2023-03-08T20:34:16.368Z,98230.28
2023-03-08T20:36:43.711Z,98239.75
2023-03-08T20:39:11.018Z,98235.25
2023-03-08T20:41:37.906Z,98246.78
2023-03-08T20:44:04.796Z,98246.09
2023-03-08T20:46:33.884Z,98236.59
2023-03-08T20:49:01.385Z,98231.28
2023-03-08T20:51:28.952Z,98231.28
2023-03-08T20:53:56.524Z,98242.59
2023-03-08T20:56:25.705Z,98246.94
2023-03-08T20:58:54.935Z,98256.06
2023-03-08T21:01:31.509Z,98267.91
2023-03-08T21:03:58.658Z,98280.72
2023-03-08T21:06:32.063Z,98289.22
2023-03-08T21:09:00.302Z,98292.72
2023-03-08T21:11:28.636Z,98299.88
2023-03-08T21:13:55.899Z,98304.69
2023-03-08T21:16:26.527Z,98295.88
2023-03-08T21:18:56.393Z,98299.22
2023-03-08T21:21:34.431Z,98297.06
2023-03-08T21:24:14.233Z,98294.56
2023-03-08T21:26:42.376Z,98290.91
2023-03-08T21:29:14.587Z,98290.03
2023-03-08T21:31:49.626Z,98298.69
2023-03-08T21:34:17.744Z,98303.72
2023-03-08T21:36:44.952Z,98312.53
2023-03-08T21:39:12.815Z,98305.22
2023-03-08T21:41:43.983Z,98311.88
2023-03-08T21:44:19.073Z,98324.84
2023-03-08T21:46:47.361Z,98319.84
2023-03-08T21:49:22.189Z,98313.34
2023-03-08T21:51:49.463Z,98312.53
2023-03-08T21:54:17.053Z,98308.84
2023-03-08T21:56:44.139Z,98317.50
2023-03-08T21:59:11.292Z,98313.34
2023-03-08T22:01:38.251Z,98317.03
2023-03-08T22:04:06.077Z,98325.50
2023-03-08T22:06:33.015Z,98320.34
2023-03-08T22:09:00.424Z,98313.72
2023-03-08T22:11:27.352Z,98310.19
2023-03-08T22:13:57.401Z,98319.84
2023-03-08T22:16:25.720Z,98335.03
2023-03-08T22:18:59.938Z,98344.81
2023-03-08T22:21:28.459Z,98347.84
2023-03-08T22:23:59.120Z,98341.84
2023-03-08T22:26:28.124Z,98359.66
2023-03-08T22:28:55.607Z,98372.47
2023-03-08T22:31:26.464Z,98369.16
2023-03-08T22:33:53.609Z,98356.16
2023-03-08T22:36:21.765Z,98363.81
2023-03-08T22:38:49.091Z,98352.50
2023-03-08T22:41:20.503Z,98365.50
2023-03-08T22:43:48.280Z,98369.97
2023-03-08T22:46:21.718Z,98375.47
2023-03-08T22:48:49.958Z,98385.13
2023-03-08T22:51:20.122Z,98393.13
2023-03-08T22:53:47.108Z,98399.13
2023-03-08T22:56:19.074Z,98401.13
2023-03-08T22:58:45.986Z,98407.63
2023-03-08T23:01:16.124Z,98404.97
2023-03-08T23:03:44.062Z,98403.78
2023-03-08T23:06:11.250Z,98401.78
2023-03-08T23:08:38.457Z,98395.47
2023-03-08T23:11:06.939Z,98390.47
2023-03-08T23:13:34.912Z,98394.81
2023-03-08T23:16:02.631Z,98396.63
2023-03-08T23:18:29.525Z,98396.09
2023-03-08T23:20:56.373Z,98394.47
2023-03-08T23:23:25.283Z,98393.28
2023-03-08T23:25:52.652Z,98390.78
2023-03-08T23:28:20.210Z,98402.09
2023-03-08T23:30:47.583Z,98395.13
2023-03-08T23:33:14.568Z,98398.97
2023-03-08T23:35:41.637Z,98385.78
2023-03-08T23:38:08.742Z,98383.81
2023-03-08T23:40:39.646Z,98389.13
2023-03-08T23:43:07.554Z,98389.81
2023-03-08T23:45:37.005Z,98369.66
2023-03-08T23:48:03.997Z,98373.16
2023-03-08T23:50:31.320Z,98377.47
2023-03-08T23:52:58.228Z,98387.44
2023-03-08T23:55:27.863Z,98399.78
2023-03-08T23:57:54.669Z,98402.97
